createdAt,value
2023-02-02T05:02:36.808Z,8.54
2023-02-02T05:05:20.352Z,8.61
2023-02-02T05:07:51.212Z,8.68
2023-02-02T05:10:19.593Z,8.76
2023-02-02T05:12:47.015Z,8.71
2023-02-02T05:15:18.403Z,8.72
2023-02-02T05:17:46.051Z,8.83
2023-02-02T05:20:14.337Z,8.89
2023-02-02T05:22:42.185Z,8.78
2023-02-02T05:25:12.652Z,8.85
2023-02-02T05:27:40.086Z,8.83
2023-02-02T05:30:10.393Z,8.72
2023-02-02T05:32:38.230Z,8.91
2023-02-02T05:35:09.718Z,8.71
2023-02-02T05:37:36.983Z,8.67
2023-02-02T05:40:05.013Z,8.64
2023-02-02T05:42:32.130Z,8.62
2023-02-02T05:44:59.572Z,8.64
2023-02-02T05:47:27.717Z,8.71
2023-02-02T05:49:55.297Z,8.62
2023-02-02T05:52:24.412Z,8.68
2023-02-02T05:54:51.564Z,8.57
2023-02-02T05:57:18.615Z,8.57
2023-02-02T05:59:45.751Z,8.57
2023-02-02T06:02:13.113Z,8.68
2023-02-02T06:04:40.231Z,8.60
2023-02-02T06:07:07.371Z,8.57
2023-02-02T06:09:34.623Z,8.51
2023-02-02T06:12:02.011Z,8.52
2023-02-02T06:14:29.276Z,8.50
2023-02-02T06:16:56.228Z,8.57
2023-02-02T06:19:23.587Z,8.51
2023-02-02T06:21:51.181Z,8.55
2023-02-02T06:24:18.331Z,8.55
2023-02-02T06:27:18.210Z,8.57
2023-02-02T06:30:08.528Z,8.50
2023-02-02T06:33:10.292Z,8.58
2023-02-02T06:35:50.055Z,8.58
2023-02-02T06:38:23.391Z,8.55
2023-02-02T06:40:50.618Z,8.60
2023-02-02T06:43:17.698Z,8.54
2023-02-02T06:45:45.223Z,8.61
2023-02-02T06:48:12.614Z,8.55
2023-02-02T06:50:40.164Z,8.64
2023-02-02T06:53:07.668Z,8.64
2023-02-02T06:55:35.111Z,8.81
2023-02-02T06:58:02.616Z,8.76
2023-02-02T07:00:30.834Z,8.64
2023-02-02T07:02:57.817Z,8.60
2023-02-02T07:05:27.970Z,8.57
2023-02-02T07:07:56.310Z,8.57
2023-02-02T07:11:12.016Z,8.67
2023-02-02T07:13:10.730Z,8.58
2023-02-02T07:15:41.490Z,8.57
2023-02-02T07:18:09.085Z,8.47
2023-02-02T07:20:36.279Z,8.41
2023-02-02T07:23:08.419Z,8.51
2023-02-02T07:25:35.671Z,8.37
2023-02-02T07:28:02.785Z,8.40
2023-02-02T07:30:30.235Z,8.41
2023-02-02T07:32:57.929Z,8.51
2023-02-02T07:35:25.501Z,8.43
2023-02-02T07:37:56.505Z,8.45
2023-02-02T07:40:23.821Z,8.50
2023-02-02T07:42:50.957Z,8.47
2023-02-02T07:45:29.709Z,8.52
2023-02-02T07:48:00.608Z,8.45
2023-02-02T07:50:30.030Z,8.41
2023-02-02T07:52:59.108Z,8.44
2023-02-02T07:55:26.802Z,8.41
2023-02-02T07:57:55.673Z,8.44
2023-02-02T08:00:23.663Z,8.44
2023-02-02T08:02:53.845Z,8.48
2023-02-02T08:05:23.129Z,8.41
2023-02-02T08:07:50.882Z,8.43
2023-02-02T08:10:18.058Z,8.51
2023-02-02T08:12:45.268Z,8.45
2023-02-02T08:15:12.737Z,8.41
2023-02-02T08:17:40.540Z,8.47
2023-02-02T08:20:08.378Z,8.48
2023-02-02T08:22:35.896Z,8.52
2023-02-02T08:25:03.036Z,8.54
2023-02-02T08:27:30.607Z,8.58
2023-02-02T08:29:57.681Z,8.52
2023-02-02T08:32:29.487Z,8.61
2023-02-02T08:34:56.465Z,8.58
2023-02-02T08:37:23.607Z,8.62
2023-02-02T08:39:51.808Z,8.64
2023-02-02T08:42:24.956Z,8.71
2023-02-02T08:46:03.166Z,8.76
2023-02-02T08:47:39.351Z,8.73
2023-02-02T08:50:06.818Z,8.81
2023-02-02T08:52:34.056Z,8.92
2023-02-02T08:55:01.047Z,8.88
2023-02-02T08:57:29.318Z,9.01
2023-02-02T08:59:56.261Z,9.02
2023-02-02T09:02:23.672Z,9.15
2023-02-02T09:04:50.950Z,9.26
2023-02-02T09:07:21.304Z,9.16
2023-02-02T09:09:53.000Z,9.20
2023-02-02T09:12:20.003Z,9.33
2023-02-02T09:14:47.443Z,9.24
2023-02-02T09:17:14.676Z,9.30
2023-02-02T09:19:41.749Z,9.48
2023-02-02T09:22:09.241Z,9.48
2023-02-02T09:24:36.564Z,9.58
2023-02-02T09:27:03.880Z,9.40
2023-02-02T09:29:31.388Z,9.34
2023-02-02T09:31:58.579Z,9.27
2023-02-02T09:34:25.774Z,9.24
2023-02-02T09:36:54.519Z,9.30
2023-02-02T09:39:22.119Z,9.26
2023-02-02T09:42:01.367Z,9.18
2023-02-02T09:44:53.177Z,9.22
2023-02-02T09:47:40.767Z,9.18
2023-02-02T09:50:52.180Z,9.15
2023-02-02T09:53:55.144Z,9.12
2023-02-02T09:56:41.981Z,9.13
2023-02-02T09:59:21.418Z,9.31
2023-02-02T10:01:56.203Z,9.52
2023-02-02T10:04:37.537Z,9.71
2023-02-02T10:07:18.393Z,9.75
2023-02-02T10:10:00.311Z,9.87
2023-02-02T10:12:43.979Z,10.25
2023-02-02T10:15:28.619Z,10.39
2023-02-02T10:18:14.625Z,10.32
2023-02-02T10:21:00.553Z,10.49
2023-02-02T10:23:39.100Z,10.40
2023-02-02T10:26:28.844Z,10.18
2023-02-02T10:29:28.075Z,10.15
2023-02-02T10:32:11.609Z,10.08
2023-02-02T10:34:43.593Z,10.03
2023-02-02T10:37:32.190Z,10.08
2023-02-02T10:40:25.935Z,10.09
2023-02-02T10:43:26.840Z,9.79
2023-02-02T10:45:54.841Z,9.89
2023-02-02T10:48:30.716Z,9.85
2023-02-02T10:51:00.924Z,9.70
2023-02-02T10:53:32.624Z,9.89
2023-02-02T10:56:09.316Z,9.79
2023-02-02T10:58:59.093Z,9.70
2023-02-02T11:01:26.466Z,9.54
2023-02-02T11:04:13.487Z,9.67
2023-02-02T11:06:49.827Z,9.58
2023-02-02T11:09:31.400Z,9.55
2023-02-02T11:12:03.842Z,9.74
2023-02-02T11:14:51.530Z,9.75
2023-02-02T11:17:24.499Z,9.71
2023-02-02T11:19:52.624Z,9.85
2023-02-02T11:22:28.480Z,9.82
2023-02-02T11:24:56.153Z,9.79
2023-02-02T11:27:26.213Z,9.77
2023-02-02T11:29:59.545Z,9.70
2023-02-02T11:32:33.392Z,9.68
2023-02-02T11:35:09.255Z,9.58
2023-02-02T11:37:38.662Z,9.68
2023-02-02T11:40:26.933Z,9.64
2023-02-02T11:42:57.061Z,9.60
2023-02-02T11:45:35.527Z,9.61
2023-02-02T11:48:22.031Z,9.64
2023-02-02T11:50:52.117Z,9.65
2023-02-02T11:53:35.967Z,9.73
2023-02-02T11:56:09.641Z,9.81
2023-02-02T11:58:49.148Z,9.70
2023-02-02T12:01:40.101Z,9.58
2023-02-02T12:04:17.488Z,9.55
2023-02-02T12:06:45.101Z,9.52
2023-02-02T12:09:19.986Z,9.51
2023-02-02T12:12:09.684Z,9.50
2023-02-02T12:14:45.539Z,9.37
2023-02-02T12:17:32.012Z,9.33
2023-02-02T12:20:20.675Z,9.12
2023-02-02T12:23:03.203Z,9.08
2023-02-02T12:25:36.218Z,9.09
2023-02-02T12:28:15.779Z,9.02
2023-02-02T12:30:54.497Z,9.06
2023-02-02T12:33:42.608Z,9.08
2023-02-02T12:36:32.378Z,8.92
2023-02-02T12:39:22.500Z,8.78
2023-02-02T12:42:25.374Z,8.76
2023-02-02T12:45:25.084Z,8.82
2023-02-02T12:48:07.467Z,8.81
2023-02-02T12:51:11.910Z,8.75
2023-02-02T12:54:35.136Z,8.73
2023-02-02T12:57:17.791Z,8.82
2023-02-02T13:00:03.444Z,8.88
2023-02-02T13:03:05.941Z,8.86
2023-02-02T13:06:28.796Z,8.92
2023-02-02T13:09:07.106Z,8.82
2023-02-02T13:11:56.146Z,8.78
2023-02-02T13:14:29.234Z,8.93
2023-02-02T13:17:44.506Z,8.92
2023-02-02T13:20:17.496Z,8.79
2023-02-02T13:22:46.807Z,8.81
2023-02-02T13:25:25.632Z,8.81
2023-02-02T13:27:54.118Z,8.91
2023-02-02T13:30:30.167Z,8.72
2023-02-02T13:33:05.767Z,8.69
2023-02-02T13:35:51.750Z,8.81
2023-02-02T13:38:24.097Z,8.69
2023-02-02T13:40:54.349Z,8.75
2023-02-02T13:43:33.555Z,8.75
2023-02-02T13:46:12.669Z,8.76
2023-02-02T13:48:51.547Z,8.75
2023-02-02T13:51:51.188Z,8.60
2023-02-02T13:54:54.618Z,8.71
2023-02-02T13:57:31.147Z,8.73
2023-02-02T14:00:03.980Z,8.54
2023-02-02T14:02:40.271Z,8.64
2023-02-02T14:05:08.873Z,8.58
2023-02-02T14:07:45.818Z,8.67
2023-02-02T14:10:48.356Z,8.52
2023-02-02T14:13:39.055Z,8.45
2023-02-02T14:16:07.976Z,8.57
2023-02-02T14:18:56.344Z,8.52
2023-02-02T14:21:32.773Z,8.45
2023-02-02T14:24:00.624Z,8.45
2023-02-02T14:26:46.513Z,8.45
2023-02-02T14:29:32.033Z,8.24
2023-02-02T14:32:28.023Z,8.27
2023-02-02T14:35:25.127Z,8.33
2023-02-02T14:38:15.683Z,8.37
2023-02-02T14:41:10.920Z,8.34
2023-02-02T14:43:52.261Z,8.31
2023-02-02T14:46:35.094Z,8.40
2023-02-02T14:49:02.199Z,8.44
2023-02-02T14:51:33.616Z,8.38
2023-02-02T14:54:05.049Z,8.54
2023-02-02T14:57:00.710Z,8.57
2023-02-02T14:59:34.566Z,8.44
2023-02-02T15:02:29.745Z,8.48
2023-02-02T15:05:28.012Z,8.41
2023-02-02T15:08:25.920Z,8.29
2023-02-02T15:10:57.639Z,8.37
2023-02-02T15:13:27.943Z,8.38
2023-02-02T15:16:21.311Z,8.51
2023-02-02T15:18:58.555Z,8.48
2023-02-02T15:21:28.270Z,8.50
2023-02-02T15:23:56.203Z,8.43
2023-02-02T15:26:33.231Z,8.33
2023-02-02T15:29:44.644Z,8.27
2023-02-02T15:32:20.723Z,8.34
2023-02-02T15:34:51.322Z,8.43
2023-02-02T15:37:23.696Z,8.37
2023-02-02T15:39:58.563Z,8.45
2023-02-02T15:42:55.584Z,8.50
2023-02-02T15:45:28.398Z,8.58
2023-02-02T15:47:58.019Z,8.65
2023-02-02T15:50:27.289Z,8.65
2023-02-02T15:52:55.598Z,8.68
2023-02-02T15:55:32.215Z,8.71
2023-02-02T15:57:59.470Z,8.69
2023-02-02T16:00:27.507Z,8.65
2023-02-02T16:03:16.217Z,8.75
2023-02-02T16:05:53.222Z,8.76
2023-02-02T16:08:41.019Z,8.65
2023-02-02T16:11:20.618Z,8.71
2023-02-02T16:14:02.028Z,8.61
2023-02-02T16:16:35.120Z,8.73
2023-02-02T16:19:24.794Z,8.79
2023-02-02T16:22:10.391Z,8.71
2023-02-02T16:24:43.861Z,8.64
2023-02-02T16:27:16.301Z,8.64
2023-02-02T16:29:43.959Z,8.57
2023-02-02T16:32:29.416Z,8.65
2023-02-02T16:34:56.918Z,8.58
2023-02-02T16:37:27.902Z,8.55
2023-02-02T16:40:15.876Z,8.79
2023-02-02T16:42:43.119Z,8.88
2023-02-02T16:45:36.068Z,8.91
2023-02-02T16:48:46.951Z,8.96
2023-02-02T16:51:16.651Z,8.93
2023-02-02T16:53:46.835Z,8.93
2023-02-02T16:56:41.145Z,8.99
2023-02-02T16:59:17.053Z,8.96
2023-02-02T17:02:05.430Z,8.92
2023-02-02T17:04:35.622Z,9.03
2023-02-02T17:07:13.981Z,9.05
2023-02-02T17:09:48.185Z,9.03
2023-02-02T17:12:34.762Z,8.99
2023-02-02T17:15:24.687Z,9.01
2023-02-02T17:17:52.733Z,8.98
2023-02-02T17:20:21.253Z,9.01
2023-02-02T17:22:52.404Z,9.06
2023-02-02T17:25:28.706Z,8.98
2023-02-02T17:27:57.600Z,8.89
2023-02-02T17:30:24.903Z,8.88
2023-02-02T17:32:52.277Z,8.89
2023-02-02T17:35:23.229Z,8.82
2023-02-02T17:37:52.931Z,8.82
2023-02-02T17:40:22.736Z,8.86
2023-02-02T17:42:51.937Z,8.78
2023-02-02T17:45:33.969Z,8.64
2023-02-02T17:48:02.140Z,8.69
2023-02-02T17:50:30.302Z,8.62
2023-02-02T17:52:57.116Z,8.62
2023-02-02T17:55:26.048Z,8.60
2023-02-02T17:57:53.999Z,8.67
2023-02-02T18:00:23.495Z,8.69
2023-02-02T18:02:56.589Z,8.48
2023-02-02T18:05:23.802Z,8.54
2023-02-02T18:07:50.566Z,8.47
2023-02-02T18:10:19.253Z,8.50
2023-02-02T18:12:46.852Z,8.33
2023-02-02T18:15:14.957Z,8.31
2023-02-02T18:17:44.906Z,8.38
2023-02-02T18:20:26.007Z,8.30
2023-02-02T18:23:15.023Z,8.34
2023-02-02T18:25:42.279Z,8.41
2023-02-02T18:28:10.782Z,8.45
2023-02-02T18:30:40.954Z,8.47
2023-02-02T18:33:09.438Z,8.50
2023-02-02T18:35:52.199Z,8.43
2023-02-02T18:41:47.395Z,8.31
2023-02-02T18:44:14.915Z,8.31
2023-02-02T18:46:41.993Z,8.36
2023-02-02T18:49:09.594Z,8.41
2023-02-02T18:51:36.784Z,8.27
2023-02-02T18:54:03.807Z,8.31
2023-02-02T18:56:31.166Z,8.24
2023-02-02T18:58:58.910Z,8.20
2023-02-02T19:01:26.785Z,8.12
2023-02-02T19:03:57.369Z,8.07
2023-02-02T19:06:43.814Z,8.07
2023-02-02T19:09:11.088Z,8.09
2023-02-02T19:11:44.727Z,8.07
2023-02-02T19:14:32.249Z,8.14
2023-02-02T19:17:14.786Z,8.19
2023-02-02T19:19:43.249Z,8.26
2023-02-02T19:22:32.674Z,8.27
2023-02-02T19:24:59.892Z,8.27
2023-02-02T19:27:27.206Z,8.22
2023-02-02T19:30:00.864Z,8.19
2023-02-02T19:32:32.615Z,8.31
2023-02-02T19:35:04.906Z,8.37
2023-02-02T19:37:33.677Z,8.31
2023-02-02T19:40:09.690Z,8.36
2023-02-02T19:42:43.650Z,8.45
2023-02-02T19:45:34.539Z,8.54
2023-02-02T19:48:13.295Z,8.47
2023-02-02T19:50:43.541Z,8.52
2023-02-02T19:53:35.172Z,8.55
2023-02-02T19:56:07.316Z,8.64
2023-02-02T19:58:39.836Z,8.67
2023-02-02T20:01:19.618Z,8.62
2023-02-02T20:03:47.219Z,8.64
2023-02-02T20:06:25.886Z,8.58
2023-02-02T20:08:53.617Z,8.60
2023-02-02T20:11:38.182Z,8.67
2023-02-02T20:14:18.581Z,8.73
2023-02-02T20:16:52.574Z,8.68
2023-02-02T20:19:25.139Z,8.81
2023-02-02T20:21:53.356Z,8.83
2023-02-02T20:24:26.438Z,8.79
2023-02-02T20:26:57.506Z,8.83
2023-02-02T20:29:40.778Z,8.75
2023-02-02T20:32:16.022Z,8.68
2023-02-02T20:34:44.829Z,8.58
2023-02-02T20:37:14.463Z,8.60
2023-02-02T20:39:47.961Z,8.60
2023-02-02T20:42:15.674Z,8.72
2023-02-02T20:44:42.804Z,8.79
2023-02-02T20:47:10.105Z,8.83
2023-02-02T20:49:37.847Z,8.86
2023-02-02T20:52:10.889Z,8.73
2023-02-02T20:54:38.994Z,8.82
2023-02-02T20:57:05.845Z,8.81
2023-02-02T20:59:32.939Z,8.83
2023-02-02T21:01:59.817Z,8.91
2023-02-02T21:04:26.550Z,8.82
2023-02-02T21:06:55.674Z,8.95
2023-02-02T21:09:22.650Z,8.92
2023-02-02T21:11:49.425Z,8.86
2023-02-02T21:14:16.549Z,8.98
2023-02-02T21:16:43.389Z,8.95
2023-02-02T21:19:10.591Z,8.93
2023-02-02T21:21:37.844Z,8.99
2023-02-02T21:24:04.764Z,8.88
2023-02-02T21:26:31.720Z,8.83
2023-02-02T21:28:58.780Z,8.79
2023-02-02T21:31:26.552Z,8.96
2023-02-02T21:33:53.975Z,8.99
2023-02-02T21:36:29.553Z,8.82
2023-02-02T21:39:06.350Z,8.89
2023-02-02T21:41:33.998Z,8.88
2023-02-02T21:44:00.758Z,8.96
2023-02-02T21:46:37.110Z,9.02
2023-02-02T21:49:04.464Z,8.91
2023-02-02T21:51:36.404Z,8.93
2023-02-02T21:54:24.576Z,9.05
2023-02-02T21:56:52.983Z,8.93
2023-02-02T21:59:22.219Z,9.02
2023-02-02T22:01:51.758Z,8.99
2023-02-02T22:04:26.234Z,9.06
2023-02-02T22:07:12.747Z,8.99
2023-02-02T22:09:41.384Z,9.02
2023-02-02T22:12:22.431Z,9.03
2023-02-02T22:14:51.389Z,9.18
2023-02-02T22:17:22.426Z,9.20
2023-02-02T22:20:01.157Z,9.12
2023-02-02T22:22:35.384Z,8.99
2023-02-02T22:25:17.300Z,9.05
2023-02-02T22:27:50.830Z,9.08
2023-02-02T22:30:33.354Z,9.10
2023-02-02T22:33:00.155Z,9.15
2023-02-02T22:35:26.813Z,9.12
2023-02-02T22:37:53.755Z,9.01
2023-02-02T22:40:24.284Z,9.18
2023-02-02T22:43:01.548Z,9.20
2023-02-02T22:45:28.745Z,9.15
2023-02-02T22:47:56.024Z,9.12
2023-02-02T22:50:29.698Z,9.10
2023-02-02T22:52:56.362Z,9.23
2023-02-02T22:55:23.868Z,9.19
2023-02-02T22:57:54.592Z,9.22
